Terminal Aerodrome Forecast
Issued by NWS

Home | Current Version | Previous Version | Text Only | Print | Product List | Glossary On
Versions: 1 2 3 4 5 6 7 8 9 10 11 12 13 14
000
FTAK31 PANC 031738
TAFAVD
TAF
PAVD 031738Z 0318/0418 04015G30KT P6SM SCT150 BKN200
     FM032000 06020G40KT P6SM FEW070 BKN150
     FM040000 06028G50KT P6SM SCT070 BKN100
     FM041500 06028G40KT P6SM SCT070 BKN100
      AMD LTD TO CLD VIS AND WIND=

USA.gov is the U.S. government's official web portal to all federal, state and local government web resources and services.